sensor_id;sensor_type;location;lat;lon;timestamp;P1;durP1;ratioP1;P2;durP2;ratioP2
62554;SDS011;48610;52.144;8.624;2024-01-10T00:02:40;11.13;;;4.57;;
62554;SDS011;48610;52.144;8.624;2024-01-10T00:05:41;5.07;;;3.63;;
62554;SDS011;48610;52.144;8.624;2024-01-10T00:08:41;7.50;;;4.25;;
62554;SDS011;48610;52.144;8.624;2024-01-10T00:11:42;5.68;;;2.97;;
62554;SDS011;48610;52.144;8.624;2024-01-10T00:14:42;5.15;;;3.00;;
62554;SDS011;48610;52.144;8.624;2024-01-10T00:17:43;19.42;;;4.55;;
62554;SDS011;48610;52.144;8.624;2024-01-10T00:20:43;10.43;;;4.70;;
62554;SDS011;48610;52.144;8.624;2024-01-10T00:23:44;6.03;;;3.42;;
62554;SDS011;48610;52.144;8.624;2024-01-10T00:26:44;9.32;;;5.32;;
62554;SDS011;48610;52.144;8.624;2024-01-10T00:29:45;9.10;;;4.00;;
62554;SDS011;48610;52.144;8.624;2024-01-10T00:32:46;7.28;;;3.50;;
62554;SDS011;48610;52.144;8.624;2024-01-10T00:35:46;15.10;;;5.50;;
62554;SDS011;48610;52.144;8.624;2024-01-10T00:38:47;4.93;;;2.92;;
62554;SDS011;48610;52.144;8.624;2024-01-10T00:41:47;8.60;;;3.08;;
62554;SDS011;48610;52.144;8.624;2024-01-10T00:44:48;8.40;;;4.53;;
62554;SDS011;48610;52.144;8.624;2024-01-10T00:47:49;6.30;;;3.72;;
62554;SDS011;48610;52.144;8.624;2024-01-10T00:50:49;7.07;;;3.83;;
62554;SDS011;48610;52.144;8.624;2024-01-10T00:53:50;13.77;;;5.18;;
62554;SDS011;48610;52.144;8.624;2024-01-10T00:56:50;7.72;;;4.88;;
62554;SDS011;48610;52.144;8.624;2024-01-10T00:59:51;7.30;;;3.63;;
62554;SDS011;48610;52.144;8.624;2024-01-10T01:02:51;6.18;;;3.58;;
62554;SDS011;48610;52.144;8.624;2024-01-10T01:05:52;5.45;;;4.30;;
62554;SDS011;48610;52.144;8.624;2024-01-10T01:08:53;6.90;;;4.22;;
62554;SDS011;48610;52.144;8.624;2024-01-10T01:11:53;12.60;;;5.50;;
62554;SDS011;48610;52.144;8.624;2024-01-10T01:14:54;6.07;;;3.78;;
62554;SDS011;48610;52.144;8.624;2024-01-10T01:17:54;5.53;;;3.88;;
62554;SDS011;48610;52.144;8.624;2024-01-10T01:20:55;8.60;;;3.92;;
62554;SDS011;48610;52.144;8.624;2024-01-10T01:23:55;12.98;;;4.13;;
62554;SDS011;48610;52.144;8.624;2024-01-10T01:26:56;7.60;;;2.72;;
62554;SDS011;48610;52.144;8.624;2024-01-10T01:29:56;6.20;;;4.57;;
62554;SDS011;48610;52.144;8.624;2024-01-10T01:32:57;7.32;;;4.50;;
62554;SDS011;48610;52.144;8.624;2024-01-10T01:35:57;7.85;;;4.82;;
62554;SDS011;48610;52.144;8.624;2024-01-10T01:38:58;6.38;;;3.50;;
62554;SDS011;48610;52.144;8.624;2024-01-10T01:41:59;6.80;;;4.65;;
62554;SDS011;48610;52.144;8.624;2024-01-10T01:44:59;34.38;;;5.53;;
62554;SDS011;48610;52.144;8.624;2024-01-10T01:48:00;6.38;;;4.20;;
62554;SDS011;48610;52.144;8.624;2024-01-10T01:51:02;5.85;;;3.88;;
62554;SDS011;48610;52.144;8.624;2024-01-10T01:54:06;7.53;;;3.90;;
62554;SDS011;48610;52.144;8.624;2024-01-10T01:57:11;8.88;;;4.35;;
62554;SDS011;48610;52.144;8.624;2024-01-10T02:00:11;8.20;;;4.75;;
62554;SDS011;48610;52.144;8.624;2024-01-10T02:03:12;8.07;;;4.80;;
62554;SDS011;48610;52.144;8.624;2024-01-10T02:06:13;7.78;;;4.53;;
62554;SDS011;48610;52.144;8.624;2024-01-10T02:09:13;6.75;;;4.68;;
62554;SDS011;48610;52.144;8.624;2024-01-10T02:12:14;6.20;;;3.70;;
62554;SDS011;48610;52.144;8.624;2024-01-10T02:15:15;10.68;;;3.55;;
62554;SDS011;48610;52.144;8.624;2024-01-10T02:18:16;4.45;;;3.88;;
62554;SDS011;48610;52.144;8.624;2024-01-10T02:21:23;5.70;;;4.68;;
62554;SDS011;48610;52.144;8.624;2024-01-10T02:24:24;8.13;;;4.63;;
62554;SDS011;48610;52.144;8.624;2024-01-10T02:27:24;6.55;;;3.22;;
62554;SDS011;48610;52.144;8.624;2024-01-10T02:30:25;11.30;;;5.35;;
62554;SDS011;48610;52.144;8.624;2024-01-10T02:33:26;13.55;;;4.78;;
62554;SDS011;48610;52.144;8.624;2024-01-10T02:36:27;8.57;;;4.40;;
62554;SDS011;48610;52.144;8.624;2024-01-10T02:39:27;9.80;;;5.13;;
62554;SDS011;48610;52.144;8.624;2024-01-10T02:42:28;14.07;;;5.63;;
62554;SDS011;48610;52.144;8.624;2024-01-10T02:45:30;14.60;;;6.70;;
62554;SDS011;48610;52.144;8.624;2024-01-10T02:48:30;13.82;;;5.30;;
62554;SDS011;48610;52.144;8.624;2024-01-10T02:51:31;8.60;;;4.47;;
62554;SDS011;48610;52.144;8.624;2024-01-10T02:54:31;9.05;;;5.03;;
62554;SDS011;48610;52.144;8.624;2024-01-10T02:57:32;10.98;;;5.28;;
62554;SDS011;48610;52.144;8.624;2024-01-10T03:00:32;8.43;;;5.05;;
62554;SDS011;48610;52.144;8.624;2024-01-10T03:03:33;8.98;;;4.45;;
62554;SDS011;48610;52.144;8.624;2024-01-10T03:06:33;6.88;;;4.57;;
62554;SDS011;48610;52.144;8.624;2024-01-10T03:09:34;13.30;;;6.00;;
62554;SDS011;48610;52.144;8.624;2024-01-10T03:12:34;6.00;;;4.15;;
62554;SDS011;48610;52.144;8.624;2024-01-10T03:15:37;6.80;;;4.15;;
62554;SDS011;48610;52.144;8.624;2024-01-10T03:18:38;8.52;;;5.53;;
62554;SDS011;48610;52.144;8.624;2024-01-10T03:21:38;7.35;;;3.92;;
62554;SDS011;48610;52.144;8.624;2024-01-10T03:24:39;9.15;;;5.13;;
62554;SDS011;48610;52.144;8.624;2024-01-10T03:27:39;10.70;;;6.70;;
62554;SDS011;48610;52.144;8.624;2024-01-10T03:30:40;10.95;;;6.10;;
62554;SDS011;48610;52.144;8.624;2024-01-10T03:33:40;6.50;;;4.53;;
62554;SDS011;48610;52.144;8.624;2024-01-10T03:36:41;10.18;;;5.28;;
62554;SDS011;48610;52.144;8.624;2024-01-10T03:39:42;11.20;;;4.03;;
62554;SDS011;48610;52.144;8.624;2024-01-10T03:42:43;6.65;;;3.65;;
62554;SDS011;48610;52.144;8.624;2024-01-10T03:45:43;12.88;;;5.25;;
62554;SDS011;48610;52.144;8.624;2024-01-10T03:48:44;9.70;;;4.85;;
62554;SDS011;48610;52.144;8.624;2024-01-10T03:51:47;10.05;;;5.32;;
62554;SDS011;48610;52.144;8.624;2024-01-10T03:54:48;9.38;;;4.65;;
62554;SDS011;48610;52.144;8.624;2024-01-10T03:57:48;10.20;;;4.40;;
62554;SDS011;48610;52.144;8.624;2024-01-10T04:00:49;5.75;;;3.00;;
62554;SDS011;48610;52.144;8.624;2024-01-10T04:03:49;5.47;;;3.80;;
62554;SDS011;48610;52.144;8.624;2024-01-10T04:06:50;12.25;;;5.38;;
62554;SDS011;48610;52.144;8.624;2024-01-10T04:09:51;12.55;;;5.57;;
62554;SDS011;48610;52.144;8.624;2024-01-10T04:12:51;5.57;;;3.70;;
62554;SDS011;48610;52.144;8.624;2024-01-10T04:15:52;5.22;;;3.67;;
62554;SDS011;48610;52.144;8.624;2024-01-10T04:18:52;25.15;;;4.40;;
62554;SDS011;48610;52.144;8.624;2024-01-10T04:21:53;6.95;;;4.13;;
62554;SDS011;48610;52.144;8.624;2024-01-10T04:24:57;11.15;;;4.72;;
62554;SDS011;48610;52.144;8.624;2024-01-10T04:27:58;9.95;;;3.50;;
62554;SDS011;48610;52.144;8.624;2024-01-10T04:30:59;9.02;;;4.93;;
62554;SDS011;48610;52.144;8.624;2024-01-10T04:33:59;9.13;;;5.07;;
62554;SDS011;48610;52.144;8.624;2024-01-10T04:37:00;12.48;;;4.85;;
62554;SDS011;48610;52.144;8.624;2024-01-10T04:40:00;10.25;;;4.00;;
62554;SDS011;48610;52.144;8.624;2024-01-10T04:43:01;8.60;;;5.13;;
62554;SDS011;48610;52.144;8.624;2024-01-10T04:46:02;9.35;;;4.22;;
62554;SDS011;48610;52.144;8.624;2024-01-10T04:49:03;7.30;;;4.07;;
62554;SDS011;48610;52.144;8.624;2024-01-10T04:52:03;7.60;;;4.13;;
62554;SDS011;48610;52.144;8.624;2024-01-10T04:55:04;8.57;;;3.83;;
62554;SDS011;48610;52.144;8.624;2024-01-10T04:58:06;7.63;;;3.72;;
62554;SDS011;48610;52.144;8.624;2024-01-10T05:01:06;9.05;;;5.50;;
62554;SDS011;48610;52.144;8.624;2024-01-10T05:04:07;12.95;;;5.38;;
62554;SDS011;48610;52.144;8.624;2024-01-10T05:07:07;7.10;;;3.95;;
62554;SDS011;48610;52.144;8.624;2024-01-10T05:10:08;8.75;;;5.68;;
62554;SDS011;48610;52.144;8.624;2024-01-10T05:13:08;14.25;;;4.15;;
62554;SDS011;48610;52.144;8.624;2024-01-10T05:16:09;12.93;;;5.85;;
62554;SDS011;48610;52.144;8.624;2024-01-10T05:19:09;13.63;;;5.50;;
62554;SDS011;48610;52.144;8.624;2024-01-10T05:22:10;6.38;;;4.53;;
62554;SDS011;48610;52.144;8.624;2024-01-10T05:25:11;8.07;;;4.03;;
62554;SDS011;48610;52.144;8.624;2024-01-10T05:28:11;4.80;;;3.88;;
62554;SDS011;48610;52.144;8.624;2024-01-10T05:31:12;8.82;;;5.05;;
62554;SDS011;48610;52.144;8.624;2024-01-10T05:34:13;12.05;;;4.63;;
62554;SDS011;48610;52.144;8.624;2024-01-10T05:37:13;5.30;;;3.78;;
62554;SDS011;48610;52.144;8.624;2024-01-10T05:40:14;4.55;;;3.25;;
62554;SDS011;48610;52.144;8.624;2024-01-10T05:43:14;11.40;;;5.15;;
62554;SDS011;48610;52.144;8.624;2024-01-10T05:46:15;6.65;;;4.28;;
62554;SDS011;48610;52.144;8.624;2024-01-10T05:49:16;6.60;;;3.40;;
62554;SDS011;48610;52.144;8.624;2024-01-10T05:52:16;14.43;;;6.00;;
62554;SDS011;48610;52.144;8.624;2024-01-10T05:55:17;10.52;;;5.53;;
62554;SDS011;48610;52.144;8.624;2024-01-10T05:58:19;4.55;;;3.55;;
62554;SDS011;48610;52.144;8.624;2024-01-10T06:01:20;4.95;;;3.63;;
62554;SDS011;48610;52.144;8.624;2024-01-10T06:04:20;10.02;;;4.03;;
62554;SDS011;48610;52.144;8.624;2024-01-10T06:07:21;9.32;;;4.60;;
62554;SDS011;48610;52.144;8.624;2024-01-10T06:10:21;11.82;;;5.13;;
62554;SDS011;48610;52.144;8.624;2024-01-10T06:13:22;9.85;;;4.82;;
62554;SDS011;48610;52.144;8.624;2024-01-10T06:16:22;16.10;;;7.28;;
62554;SDS011;48610;52.144;8.624;2024-01-10T06:19:23;4.80;;;3.72;;
62554;SDS011;48610;52.144;8.624;2024-01-10T06:22:23;12.23;;;4.63;;
62554;SDS011;48610;52.144;8.624;2024-01-10T06:25:25;12.77;;;6.95;;
62554;SDS011;48610;52.144;8.624;2024-01-10T06:28:26;7.80;;;4.47;;
62554;SDS011;48610;52.144;8.624;2024-01-10T06:31:26;12.10;;;6.65;;
62554;SDS011;48610;52.144;8.624;2024-01-10T06:34:27;6.85;;;5.10;;
62554;SDS011;48610;52.144;8.624;2024-01-10T06:37:28;5.57;;;3.55;;
62554;SDS011;48610;52.144;8.624;2024-01-10T06:40:28;5.90;;;3.17;;
62554;SDS011;48610;52.144;8.624;2024-01-10T06:43:29;14.73;;;5.22;;
62554;SDS011;48610;52.144;8.624;2024-01-10T06:46:31;7.93;;;5.40;;
62554;SDS011;48610;52.144;8.624;2024-01-10T06:49:31;7.30;;;4.72;;
62554;SDS011;48610;52.144;8.624;2024-01-10T06:52:32;15.75;;;6.28;;
62554;SDS011;48610;52.144;8.624;2024-01-10T06:55:32;16.35;;;7.70;;
62554;SDS011;48610;52.144;8.624;2024-01-10T06:58:33;8.15;;;4.57;;
62554;SDS011;48610;52.144;8.624;2024-01-10T07:01:33;12.48;;;5.78;;
62554;SDS011;48610;52.144;8.624;2024-01-10T07:04:36;16.73;;;7.88;;
62554;SDS011;48610;52.144;8.624;2024-01-10T07:07:37;14.68;;;5.88;;
62554;SDS011;48610;52.144;8.624;2024-01-10T07:10:38;11.95;;;5.80;;
62554;SDS011;48610;52.144;8.624;2024-01-10T07:13:38;13.82;;;5.63;;
62554;SDS011;48610;52.144;8.624;2024-01-10T07:16:40;10.73;;;5.63;;
62554;SDS011;48610;52.144;8.624;2024-01-10T07:19:42;14.65;;;5.10;;
62554;SDS011;48610;52.144;8.624;2024-01-10T07:22:42;8.50;;;4.75;;
62554;SDS011;48610;52.144;8.624;2024-01-10T07:25:44;9.95;;;5.38;;
62554;SDS011;48610;52.144;8.624;2024-01-10T07:28:44;9.30;;;4.90;;
62554;SDS011;48610;52.144;8.624;2024-01-10T07:31:45;10.88;;;5.53;;
62554;SDS011;48610;52.144;8.624;2024-01-10T07:34:45;12.05;;;5.00;;
62554;SDS011;48610;52.144;8.624;2024-01-10T07:37:46;8.68;;;5.30;;
62554;SDS011;48610;52.144;8.624;2024-01-10T07:40:46;7.47;;;5.10;;
62554;SDS011;48610;52.144;8.624;2024-01-10T07:43:47;11.35;;;5.30;;
62554;SDS011;48610;52.144;8.624;2024-01-10T07:46:47;15.48;;;6.72;;
62554;SDS011;48610;52.144;8.624;2024-01-10T07:49:48;10.63;;;4.90;;
62554;SDS011;48610;52.144;8.624;2024-01-10T07:52:49;9.65;;;5.07;;
62554;SDS011;48610;52.144;8.624;2024-01-10T07:55:49;8.75;;;4.93;;
62554;SDS011;48610;52.144;8.624;2024-01-10T07:58:51;8.55;;;5.50;;
62554;SDS011;48610;52.144;8.624;2024-01-10T08:01:55;8.25;;;4.25;;
62554;SDS011;48610;52.144;8.624;2024-01-10T08:04:56;8.30;;;4.03;;
62554;SDS011;48610;52.144;8.624;2024-01-10T08:07:57;7.97;;;4.28;;
62554;SDS011;48610;52.144;8.624;2024-01-10T08:10:58;11.90;;;6.15;;
62554;SDS011;48610;52.144;8.624;2024-01-10T08:13:58;14.88;;;5.95;;
62554;SDS011;48610;52.144;8.624;2024-01-10T08:16:59;11.82;;;6.57;;
62554;SDS011;48610;52.144;8.624;2024-01-10T08:20:00;15.15;;;7.38;;
62554;SDS011;48610;52.144;8.624;2024-01-10T08:23:00;23.55;;;8.02;;
62554;SDS011;48610;52.144;8.624;2024-01-10T08:26:02;18.35;;;8.43;;
62554;SDS011;48610;52.144;8.624;2024-01-10T08:29:02;27.70;;;8.95;;
62554;SDS011;48610;52.144;8.624;2024-01-10T08:32:03;18.13;;;9.77;;
62554;SDS011;48610;52.144;8.624;2024-01-10T08:35:04;23.58;;;10.40;;
62554;SDS011;48610;52.144;8.624;2024-01-10T08:38:04;20.65;;;8.85;;
62554;SDS011;48610;52.144;8.624;2024-01-10T08:41:08;18.42;;;9.05;;
62554;SDS011;48610;52.144;8.624;2024-01-10T08:44:11;20.27;;;8.52;;
62554;SDS011;48610;52.144;8.624;2024-01-10T08:47:11;21.08;;;8.90;;
62554;SDS011;48610;52.144;8.624;2024-01-10T08:50:12;18.35;;;9.10;;
62554;SDS011;48610;52.144;8.624;2024-01-10T08:53:12;19.83;;;9.80;;
62554;SDS011;48610;52.144;8.624;2024-01-10T08:56:14;25.90;;;8.95;;
62554;SDS011;48610;52.144;8.624;2024-01-10T08:59:15;24.52;;;8.90;;
62554;SDS011;48610;52.144;8.624;2024-01-10T09:02:15;19.15;;;10.30;;
62554;SDS011;48610;52.144;8.624;2024-01-10T09:05:16;15.93;;;8.55;;
62554;SDS011;48610;52.144;8.624;2024-01-10T09:08:16;22.15;;;9.68;;
62554;SDS011;48610;52.144;8.624;2024-01-10T09:11:17;20.88;;;9.40;;
62554;SDS011;48610;52.144;8.624;2024-01-10T09:14:17;22.25;;;10.35;;
62554;SDS011;48610;52.144;8.624;2024-01-10T09:17:18;23.08;;;11.63;;
62554;SDS011;48610;52.144;8.624;2024-01-10T09:20:19;16.50;;;9.52;;
62554;SDS011;48610;52.144;8.624;2024-01-10T09:23:20;29.65;;;11.77;;
62554;SDS011;48610;52.144;8.624;2024-01-10T09:26:21;24.38;;;11.13;;
62554;SDS011;48610;52.144;8.624;2024-01-10T09:29:21;23.63;;;10.70;;
62554;SDS011;48610;52.144;8.624;2024-01-10T09:32:22;22.80;;;10.50;;
62554;SDS011;48610;52.144;8.624;2024-01-10T09:35:23;21.33;;;10.55;;
62554;SDS011;48610;52.144;8.624;2024-01-10T09:38:23;21.35;;;9.85;;
62554;SDS011;48610;52.144;8.624;2024-01-10T09:41:24;22.50;;;11.10;;
62554;SDS011;48610;52.144;8.624;2024-01-10T09:44:28;24.23;;;10.68;;
62554;SDS011;48610;52.144;8.624;2024-01-10T09:47:29;23.33;;;11.32;;
62554;SDS011;48610;52.144;8.624;2024-01-10T09:50:31;25.98;;;10.00;;
62554;SDS011;48610;52.144;8.624;2024-01-10T09:53:31;22.30;;;10.25;;
62554;SDS011;48610;52.144;8.624;2024-01-10T09:56:36;22.40;;;10.90;;
62554;SDS011;48610;52.144;8.624;2024-01-10T09:59:37;20.70;;;10.63;;
62554;SDS011;48610;52.144;8.624;2024-01-10T10:02:38;27.85;;;10.15;;
62554;SDS011;48610;52.144;8.624;2024-01-10T10:05:42;21.08;;;10.20;;
62554;SDS011;48610;52.144;8.624;2024-01-10T10:08:42;26.40;;;10.52;;
62554;SDS011;48610;52.144;8.624;2024-01-10T10:11:43;22.45;;;10.57;;
62554;SDS011;48610;52.144;8.624;2024-01-10T10:14:44;25.95;;;12.00;;
62554;SDS011;48610;52.144;8.624;2024-01-10T10:17:45;18.67;;;10.32;;
62554;SDS011;48610;52.144;8.624;2024-01-10T10:20:47;19.80;;;10.90;;
62554;SDS011;48610;52.144;8.624;2024-01-10T10:24:00;27.33;;;11.50;;
62554;SDS011;48610;52.144;8.624;2024-01-10T10:27:11;23.88;;;11.75;;
62554;SDS011;48610;52.144;8.624;2024-01-10T10:30:15;37.70;;;13.10;;
62554;SDS011;48610;52.144;8.624;2024-01-10T10:33:15;24.58;;;12.30;;
62554;SDS011;48610;52.144;8.624;2024-01-10T10:36:18;22.15;;;10.05;;
62554;SDS011;48610;52.144;8.624;2024-01-10T10:39:20;22.58;;;12.10;;
62554;SDS011;48610;52.144;8.624;2024-01-10T10:42:21;24.15;;;11.07;;
62554;SDS011;48610;52.144;8.624;2024-01-10T10:45:23;25.20;;;11.20;;
62554;SDS011;48610;52.144;8.624;2024-01-10T10:48:25;25.98;;;11.70;;
62554;SDS011;48610;52.144;8.624;2024-01-10T10:51:28;26.35;;;11.20;;
62554;SDS011;48610;52.144;8.624;2024-01-10T10:54:34;25.52;;;11.48;;
62554;SDS011;48610;52.144;8.624;2024-01-10T10:57:36;27.92;;;10.82;;
62554;SDS011;48610;52.144;8.624;2024-01-10T11:00:36;24.33;;;11.57;;
62554;SDS011;48610;52.144;8.624;2024-01-10T11:03:38;22.95;;;11.35;;
62554;SDS011;48610;52.144;8.624;2024-01-10T11:06:47;24.58;;;11.15;;
62554;SDS011;48610;52.144;8.624;2024-01-10T11:09:47;25.45;;;11.00;;
62554;SDS011;48610;52.144;8.624;2024-01-10T11:16:40;21.73;;;10.93;;
62554;SDS011;48610;52.144;8.624;2024-01-10T11:23:28;27.30;;;10.88;;
62554;SDS011;48610;52.144;8.624;2024-01-10T11:26:50;25.05;;;10.55;;
62554;SDS011;48610;52.144;8.624;2024-01-10T11:30:06;23.88;;;12.27;;
62554;SDS011;48610;52.144;8.624;2024-01-10T11:33:20;28.50;;;11.68;;
62554;SDS011;48610;52.144;8.624;2024-01-10T11:36:32;26.35;;;11.90;;
62554;SDS011;48610;52.144;8.624;2024-01-10T11:39:35;24.13;;;12.00;;
62554;SDS011;48610;52.144;8.624;2024-01-10T11:42:40;23.98;;;11.50;;
62554;SDS011;48610;52.144;8.624;2024-01-10T11:48:51;40.33;;;16.00;;
62554;SDS011;48610;52.144;8.624;2024-01-10T11:51:57;26.42;;;11.95;;
62554;SDS011;48610;52.144;8.624;2024-01-10T11:54:58;31.30;;;11.85;;
62554;SDS011;48610;52.144;8.624;2024-01-10T11:58:08;24.52;;;11.75;;
62554;SDS011;48610;52.144;8.624;2024-01-10T12:01:10;32.58;;;13.00;;
62554;SDS011;48610;52.144;8.624;2024-01-10T12:04:11;36.90;;;12.73;;
62554;SDS011;48610;52.144;8.624;2024-01-10T12:07:12;30.75;;;12.25;;
62554;SDS011;48610;52.144;8.624;2024-01-10T12:10:13;30.95;;;12.85;;
62554;SDS011;48610;52.144;8.624;2024-01-10T12:13:13;23.20;;;11.80;;
62554;SDS011;48610;52.144;8.624;2024-01-10T12:16:15;27.92;;;12.88;;
62554;SDS011;48610;52.144;8.624;2024-01-10T12:19:16;32.28;;;12.45;;
62554;SDS011;48610;52.144;8.624;2024-01-10T12:22:16;27.92;;;12.27;;
62554;SDS011;48610;52.144;8.624;2024-01-10T12:25:17;37.90;;;14.43;;
62554;SDS011;48610;52.144;8.624;2024-01-10T12:28:19;28.10;;;12.05;;
62554;SDS011;48610;52.144;8.624;2024-01-10T12:31:20;27.77;;;12.95;;
62554;SDS011;48610;52.144;8.624;2024-01-10T12:34:22;29.25;;;12.85;;
62554;SDS011;48610;52.144;8.624;2024-01-10T12:37:24;27.35;;;12.13;;
62554;SDS011;48610;52.144;8.624;2024-01-10T12:40:24;27.35;;;12.23;;
62554;SDS011;48610;52.144;8.624;2024-01-10T12:43:25;28.23;;;11.93;;
62554;SDS011;48610;52.144;8.624;2024-01-10T12:46:26;32.65;;;12.82;;
62554;SDS011;48610;52.144;8.624;2024-01-10T12:49:26;30.17;;;13.32;;
62554;SDS011;48610;52.144;8.624;2024-01-10T12:52:27;31.52;;;14.15;;
62554;SDS011;48610;52.144;8.624;2024-01-10T12:55:27;26.85;;;12.15;;
62554;SDS011;48610;52.144;8.624;2024-01-10T12:58:29;28.65;;;11.85;;
62554;SDS011;48610;52.144;8.624;2024-01-10T13:01:29;35.60;;;13.15;;
62554;SDS011;48610;52.144;8.624;2024-01-10T13:04:30;27.67;;;13.00;;
62554;SDS011;48610;52.144;8.624;2024-01-10T13:07:30;27.42;;;13.27;;
62554;SDS011;48610;52.144;8.624;2024-01-10T13:10:34;29.63;;;12.75;;
62554;SDS011;48610;52.144;8.624;2024-01-10T13:13:35;28.75;;;13.63;;
62554;SDS011;48610;52.144;8.624;2024-01-10T13:16:36;26.73;;;12.23;;
62554;SDS011;48610;52.144;8.624;2024-01-10T13:19:36;28.48;;;13.48;;
62554;SDS011;48610;52.144;8.624;2024-01-10T13:22:37;29.85;;;13.43;;
62554;SDS011;48610;52.144;8.624;2024-01-10T13:25:37;32.10;;;12.88;;
62554;SDS011;48610;52.144;8.624;2024-01-10T13:28:38;36.10;;;13.90;;
62554;SDS011;48610;52.144;8.624;2024-01-10T13:31:40;35.90;;;16.58;;
62554;SDS011;48610;52.144;8.624;2024-01-10T13:34:41;29.10;;;11.93;;
62554;SDS011;48610;52.144;8.624;2024-01-10T13:37:45;31.75;;;12.43;;
62554;SDS011;48610;52.144;8.624;2024-01-10T13:40:46;25.55;;;12.60;;
62554;SDS011;48610;52.144;8.624;2024-01-10T13:43:46;26.73;;;12.45;;
62554;SDS011;48610;52.144;8.624;2024-01-10T13:46:47;25.02;;;11.20;;
62554;SDS011;48610;52.144;8.624;2024-01-10T13:49:50;34.67;;;13.48;;
62554;SDS011;48610;52.144;8.624;2024-01-10T13:52:51;27.70;;;12.52;;
62554;SDS011;48610;52.144;8.624;2024-01-10T13:55:53;48.92;;;14.88;;
62554;SDS011;48610;52.144;8.624;2024-01-10T13:58:54;27.35;;;11.23;;
62554;SDS011;48610;52.144;8.624;2024-01-10T14:01:55;32.75;;;13.23;;
62554;SDS011;48610;52.144;8.624;2024-01-10T14:04:55;25.73;;;12.57;;
62554;SDS011;48610;52.144;8.624;2024-01-10T14:07:59;33.42;;;12.90;;
62554;SDS011;48610;52.144;8.624;2024-01-10T14:11:00;28.30;;;12.00;;
62554;SDS011;48610;52.144;8.624;2024-01-10T14:14:00;45.08;;;13.32;;
62554;SDS011;48610;52.144;8.624;2024-01-10T14:17:01;24.38;;;11.68;;
62554;SDS011;48610;52.144;8.624;2024-01-10T14:20:04;23.45;;;11.93;;
62554;SDS011;48610;52.144;8.624;2024-01-10T14:23:08;26.17;;;12.60;;
62554;SDS011;48610;52.144;8.624;2024-01-10T14:26:09;27.38;;;11.60;;
62554;SDS011;48610;52.144;8.624;2024-01-10T14:29:10;32.45;;;12.55;;
62554;SDS011;48610;52.144;8.624;2024-01-10T14:32:10;37.15;;;12.50;;
62554;SDS011;48610;52.144;8.624;2024-01-10T14:35:11;30.83;;;12.63;;
62554;SDS011;48610;52.144;8.624;2024-01-10T14:38:12;33.42;;;11.65;;
62554;SDS011;48610;52.144;8.624;2024-01-10T14:41:12;26.30;;;12.45;;
62554;SDS011;48610;52.144;8.624;2024-01-10T14:44:13;29.10;;;11.82;;
62554;SDS011;48610;52.144;8.624;2024-01-10T14:47:13;31.60;;;11.73;;
62554;SDS011;48610;52.144;8.624;2024-01-10T14:50:14;24.27;;;11.48;;
62554;SDS011;48610;52.144;8.624;2024-01-10T14:53:14;35.08;;;12.40;;
62554;SDS011;48610;52.144;8.624;2024-01-10T14:56:15;30.83;;;13.77;;
62554;SDS011;48610;52.144;8.624;2024-01-10T14:59:15;29.95;;;11.73;;
62554;SDS011;48610;52.144;8.624;2024-01-10T15:02:16;28.00;;;11.73;;
62554;SDS011;48610;52.144;8.624;2024-01-10T15:05:18;30.95;;;12.93;;
62554;SDS011;48610;52.144;8.624;2024-01-10T15:08:20;23.63;;;11.98;;
62554;SDS011;48610;52.144;8.624;2024-01-10T15:11:21;28.35;;;12.00;;
62554;SDS011;48610;52.144;8.624;2024-01-10T15:14:21;31.35;;;14.35;;
62554;SDS011;48610;52.144;8.624;2024-01-10T15:17:22;27.58;;;11.68;;
62554;SDS011;48610;52.144;8.624;2024-01-10T15:20:22;26.15;;;12.15;;
62554;SDS011;48610;52.144;8.624;2024-01-10T15:23:23;30.33;;;11.85;;
62554;SDS011;48610;52.144;8.624;2024-01-10T15:26:23;37.00;;;14.05;;
62554;SDS011;48610;52.144;8.624;2024-01-10T15:29:24;25.10;;;11.25;;
62554;SDS011;48610;52.144;8.624;2024-01-10T15:32:25;28.17;;;11.95;;
62554;SDS011;48610;52.144;8.624;2024-01-10T15:35:26;24.30;;;12.35;;
62554;SDS011;48610;52.144;8.624;2024-01-10T15:38:26;27.05;;;11.70;;
62554;SDS011;48610;52.144;8.624;2024-01-10T15:41:26;25.45;;;10.77;;
62554;SDS011;48610;52.144;8.624;2024-01-10T15:44:27;25.27;;;12.13;;
62554;SDS011;48610;52.144;8.624;2024-01-10T15:47:28;23.95;;;11.93;;
62554;SDS011;48610;52.144;8.624;2024-01-10T15:50:28;21.98;;;9.93;;
62554;SDS011;48610;52.144;8.624;2024-01-10T15:53:29;21.80;;;10.60;;
62554;SDS011;48610;52.144;8.624;2024-01-10T15:56:31;26.98;;;12.52;;
62554;SDS011;48610;52.144;8.624;2024-01-10T15:59:33;28.33;;;12.77;;
62554;SDS011;48610;52.144;8.624;2024-01-10T16:02:34;31.95;;;10.80;;
62554;SDS011;48610;52.144;8.624;2024-01-10T16:05:35;32.97;;;12.27;;
62554;SDS011;48610;52.144;8.624;2024-01-10T16:08:35;28.35;;;13.00;;
62554;SDS011;48610;52.144;8.624;2024-01-10T16:11:39;23.80;;;10.82;;
62554;SDS011;48610;52.144;8.624;2024-01-10T16:14:42;30.20;;;11.07;;
62554;SDS011;48610;52.144;8.624;2024-01-10T16:17:42;24.40;;;11.85;;
62554;SDS011;48610;52.144;8.624;2024-01-10T16:20:43;28.58;;;10.63;;
62554;SDS011;48610;52.144;8.624;2024-01-10T16:23:43;32.30;;;11.20;;
62554;SDS011;48610;52.144;8.624;2024-01-10T16:26:44;23.80;;;11.50;;
62554;SDS011;48610;52.144;8.624;2024-01-10T16:29:45;20.65;;;10.32;;
62554;SDS011;48610;52.144;8.624;2024-01-10T16:32:45;28.63;;;13.13;;
62554;SDS011;48610;52.144;8.624;2024-01-10T16:35:46;30.85;;;12.57;;
62554;SDS011;48610;52.144;8.624;2024-01-10T16:38:46;20.63;;;10.60;;
62554;SDS011;48610;52.144;8.624;2024-01-10T16:41:47;32.60;;;13.40;;
62554;SDS011;48610;52.144;8.624;2024-01-10T16:44:47;33.50;;;13.45;;
62554;SDS011;48610;52.144;8.624;2024-01-10T16:47:48;27.98;;;11.60;;
62554;SDS011;48610;52.144;8.624;2024-01-10T16:50:50;25.88;;;12.77;;
62554;SDS011;48610;52.144;8.624;2024-01-10T16:53:51;21.05;;;10.95;;
62554;SDS011;48610;52.144;8.624;2024-01-10T16:56:51;24.27;;;10.85;;
62554;SDS011;48610;52.144;8.624;2024-01-10T16:59:52;32.92;;;12.98;;
62554;SDS011;48610;52.144;8.624;2024-01-10T17:02:52;33.22;;;13.63;;
62554;SDS011;48610;52.144;8.624;2024-01-10T17:05:56;29.42;;;12.80;;
62554;SDS011;48610;52.144;8.624;2024-01-10T17:08:57;36.17;;;15.18;;
62554;SDS011;48610;52.144;8.624;2024-01-10T17:11:58;29.70;;;11.73;;
62554;SDS011;48610;52.144;8.624;2024-01-10T17:14:58;43.95;;;16.73;;
62554;SDS011;48610;52.144;8.624;2024-01-10T17:18:01;23.08;;;10.50;;
62554;SDS011;48610;52.144;8.624;2024-01-10T17:21:01;21.58;;;9.63;;
62554;SDS011;48610;52.144;8.624;2024-01-10T17:24:02;38.63;;;13.52;;
62554;SDS011;48610;52.144;8.624;2024-01-10T17:27:03;35.95;;;15.23;;
62554;SDS011;48610;52.144;8.624;2024-01-10T17:30:04;21.65;;;10.35;;
62554;SDS011;48610;52.144;8.624;2024-01-10T17:33:06;27.08;;;10.80;;
62554;SDS011;48610;52.144;8.624;2024-01-10T17:36:10;21.35;;;10.07;;
62554;SDS011;48610;52.144;8.624;2024-01-10T17:39:10;25.80;;;12.93;;
62554;SDS011;48610;52.144;8.624;2024-01-10T17:42:11;20.02;;;11.75;;
62554;SDS011;48610;52.144;8.624;2024-01-10T17:45:12;26.75;;;11.25;;
62554;SDS011;48610;52.144;8.624;2024-01-10T17:48:12;24.00;;;11.30;;
62554;SDS011;48610;52.144;8.624;2024-01-10T17:51:13;29.02;;;12.35;;
62554;SDS011;48610;52.144;8.624;2024-01-10T17:54:19;27.73;;;11.45;;
62554;SDS011;48610;52.144;8.624;2024-01-10T17:57:20;32.65;;;11.30;;
62554;SDS011;48610;52.144;8.624;2024-01-10T18:00:23;19.98;;;10.70;;
62554;SDS011;48610;52.144;8.624;2024-01-10T18:03:28;20.77;;;9.77;;
62554;SDS011;48610;52.144;8.624;2024-01-10T18:06:28;23.23;;;9.70;;